createdAt,value
2023-03-04T00:02:23.399Z,33.13
2023-03-04T00:04:50.267Z,32.30
2023-03-04T00:07:18.854Z,33.87
2023-03-04T00:09:46.093Z,33.67
2023-03-04T00:12:13.236Z,33.13
2023-03-04T00:14:40.305Z,32.60
2023-03-04T00:17:07.138Z,33.57
2023-03-04T00:19:35.007Z,34.23
2023-03-04T00:22:02.185Z,34.37
2023-03-04T00:24:28.812Z,35.10
2023-03-04T00:26:55.407Z,34.97
2023-03-04T00:29:22.215Z,33.80
2023-03-04T00:31:48.922Z,33.17
2023-03-04T00:34:15.527Z,34.43
2023-03-04T00:36:44.659Z,34.77
2023-03-04T00:39:12.441Z,33.87
2023-03-04T00:41:39.668Z,34.43
2023-03-04T00:44:06.589Z,34.93
2023-03-04T00:46:33.458Z,35.37
2023-03-04T00:49:00.094Z,34.77
2023-03-04T00:51:26.808Z,34.80
2023-03-04T00:53:53.480Z,34.97
2023-03-04T00:56:20.089Z,37.20
2023-03-04T00:58:46.817Z,35.40
2023-03-04T01:01:13.419Z,36.10
2023-03-04T01:03:41.500Z,35.63
2023-03-04T01:06:08.429Z,33.80
2023-03-04T01:08:35.023Z,36.47
2023-03-04T01:11:01.613Z,35.93
2023-03-04T01:13:28.255Z,34.80
2023-03-04T01:15:55.957Z,34.17
2023-03-04T01:18:22.596Z,36.07
2023-03-04T01:20:49.200Z,35.20
2023-03-04T01:23:15.902Z,36.07
2023-03-04T01:25:42.827Z,34.83
2023-03-04T01:28:09.481Z,35.13
2023-03-04T01:30:36.104Z,34.73
2023-03-04T01:33:02.775Z,35.77
2023-03-04T01:35:29.433Z,37.20
2023-03-04T01:37:56.943Z,37.60
2023-03-04T01:40:23.922Z,37.17
2023-03-04T01:42:51.021Z,37.37
2023-03-04T01:45:19.948Z,36.00
2023-03-04T01:47:49.165Z,36.73
2023-03-04T01:50:31.543Z,37.87
2023-03-04T01:52:58.157Z,36.03
2023-03-04T01:55:25.127Z,39.13
2023-03-04T01:57:53.053Z,37.93
2023-03-04T02:00:27.016Z,38.13
2023-03-04T02:03:11.355Z,38.33
2023-03-04T02:05:41.273Z,37.47
2023-03-04T02:08:09.273Z,37.67
2023-03-04T02:10:37.245Z,37.53
2023-03-04T02:13:06.249Z,39.23
2023-03-04T02:15:33.549Z,35.73
2023-03-04T02:18:01.194Z,37.83
2023-03-04T02:21:08.213Z,37.43
2023-03-04T02:24:10.406Z,38.50
2023-03-04T02:26:39.786Z,38.07
2023-03-04T02:29:06.451Z,37.60
2023-03-04T02:31:39.888Z,36.87
2023-03-04T02:34:12.601Z,37.03
2023-03-04T02:36:40.349Z,39.17
2023-03-04T02:39:13.090Z,39.73
2023-03-04T02:41:40.035Z,38.50
2023-03-04T02:44:20.964Z,38.43
2023-03-04T02:46:48.193Z,39.83
2023-03-04T02:49:15.099Z,38.03
2023-03-04T02:51:41.687Z,37.77
2023-03-04T02:54:16.057Z,38.83
2023-03-04T02:56:51.837Z,38.30
2023-03-04T02:59:19.770Z,38.07
2023-03-04T03:01:46.543Z,38.03
2023-03-04T03:04:14.128Z,37.27
2023-03-04T03:06:41.994Z,38.57
2023-03-04T03:09:09.400Z,37.93
2023-03-04T03:11:36.530Z,39.33
2023-03-04T03:14:04.108Z,39.73
2023-03-04T03:16:31.140Z,38.60
2023-03-04T03:18:57.889Z,37.97
2023-03-04T03:21:24.719Z,37.93
2023-03-04T03:23:51.321Z,40.50
2023-03-04T03:26:19.841Z,38.37
2023-03-04T03:28:46.571Z,39.33
2023-03-04T03:31:13.540Z,38.07
2023-03-04T03:33:40.300Z,39.87
2023-03-04T03:36:08.215Z,38.93
2023-03-04T03:38:35.295Z,38.60
2023-03-04T03:41:02.010Z,37.67
2023-03-04T03:43:28.792Z,37.57
2023-03-04T03:45:55.399Z,39.37
2023-03-04T03:48:22.088Z,38.77
2023-03-04T03:50:48.675Z,38.47
2023-03-04T03:53:15.282Z,38.93
2023-03-04T03:55:41.952Z,38.83
2023-03-04T03:58:08.550Z,38.73
2023-03-04T04:00:35.130Z,39.60
2023-03-04T04:03:02.100Z,39.23
2023-03-04T04:05:28.730Z,38.67
2023-03-04T04:07:56.059Z,39.30
2023-03-04T04:10:22.650Z,39.50
2023-03-04T04:12:49.312Z,39.10
2023-03-04T04:15:15.888Z,38.73
2023-03-04T04:17:42.548Z,38.53
2023-03-04T04:20:09.729Z,39.03
2023-03-04T04:22:36.323Z,38.13
2023-03-04T04:25:03.072Z,37.20
2023-03-04T04:27:29.734Z,36.67
2023-03-04T04:29:56.284Z,36.47
2023-03-04T04:32:22.926Z,34.23
2023-03-04T04:34:49.630Z,36.97
2023-03-04T04:37:16.239Z,36.50
2023-03-04T04:39:42.824Z,34.63
2023-03-04T04:42:11.258Z,34.73
2023-03-04T04:44:39.098Z,32.57
2023-03-04T04:47:07.261Z,33.40
2023-03-04T04:49:34.292Z,34.57
2023-03-04T04:52:00.938Z,33.57
2023-03-04T04:54:27.589Z,32.87
2023-03-04T04:56:54.132Z,32.10
2023-03-04T04:59:20.768Z,32.20
2023-03-04T05:01:47.673Z,31.20
2023-03-04T05:04:14.312Z,30.07
2023-03-04T05:06:41.275Z,29.73
2023-03-04T05:09:07.993Z,30.53
2023-03-04T05:11:34.768Z,30.33
2023-03-04T05:14:01.426Z,29.00
2023-03-04T05:16:27.968Z,29.87
2023-03-04T05:18:54.563Z,29.17
2023-03-04T05:21:21.323Z,28.20
2023-03-04T05:23:47.955Z,28.87
2023-03-04T05:26:17.243Z,29.13
2023-03-04T05:28:44.640Z,29.53
2023-03-04T05:31:11.924Z,30.37
2023-03-04T05:33:38.580Z,27.23
2023-03-04T05:36:06.644Z,29.40
2023-03-04T05:38:33.333Z,28.07
2023-03-04T05:41:03.523Z,29.67
2023-03-04T05:43:31.629Z,29.33
2023-03-04T05:45:58.213Z,29.77
2023-03-04T05:48:24.864Z,28.20
2023-03-04T05:51:00.452Z,28.30
2023-03-04T05:53:28.552Z,28.60
2023-03-04T05:55:55.882Z,28.87
2023-03-04T05:58:23.027Z,28.63
2023-03-04T06:00:49.636Z,29.43
2023-03-04T06:03:18.603Z,30.63
2023-03-04T06:05:45.297Z,28.20
2023-03-04T06:08:12.370Z,29.67
2023-03-04T06:10:40.935Z,28.30
2023-03-04T06:13:08.387Z,28.37
2023-03-04T06:15:35.044Z,28.20
2023-03-04T06:18:02.176Z,28.40
2023-03-04T06:20:28.847Z,27.97
2023-03-04T06:22:56.605Z,28.40
2023-03-04T06:25:23.313Z,27.40
2023-03-04T06:27:50.889Z,27.20
2023-03-04T06:30:18.549Z,27.53
2023-03-04T06:32:46.130Z,27.27
2023-03-04T06:35:14.533Z,28.30
2023-03-04T06:37:41.232Z,26.90
2023-03-04T06:40:09.300Z,28.67
2023-03-04T06:42:36.568Z,23.93
2023-03-04T06:45:04.426Z,27.53
2023-03-04T06:47:31.002Z,24.60
2023-03-04T06:49:57.589Z,26.27
2023-03-04T06:52:24.263Z,26.67
2023-03-04T06:54:50.876Z,25.33
2023-03-04T06:57:17.549Z,26.23
2023-03-04T06:59:44.151Z,25.70
2023-03-04T07:02:21.458Z,25.90
2023-03-04T07:04:48.189Z,24.93
2023-03-04T07:07:14.766Z,24.77
2023-03-04T07:09:41.400Z,25.10
2023-03-04T07:12:08.074Z,25.70
2023-03-04T07:14:34.678Z,25.50
2023-03-04T07:17:01.369Z,25.37
2023-03-04T07:19:28.016Z,34.37
2023-03-04T07:21:54.567Z,25.93
2023-03-04T07:24:21.208Z,23.97
2023-03-04T07:26:47.757Z,23.63
2023-03-04T07:29:14.423Z,23.37
2023-03-04T07:31:41.110Z,22.40
2023-03-04T07:34:15.154Z,23.63
2023-03-04T07:36:42.356Z,23.67
2023-03-04T07:39:11.422Z,22.47
2023-03-04T07:41:38.084Z,23.30
2023-03-04T07:44:06.697Z,23.43
2023-03-04T07:46:33.911Z,22.10
2023-03-04T07:49:00.670Z,22.63
2023-03-04T07:51:27.933Z,21.87
2023-03-04T07:53:57.937Z,22.90
2023-03-04T07:56:27.114Z,21.70
2023-03-04T07:58:54.008Z,21.60
2023-03-04T08:01:23.918Z,17.77
2023-03-04T08:03:50.673Z,17.57
2023-03-04T08:06:19.096Z,17.50
2023-03-04T08:08:46.288Z,14.27
2023-03-04T08:11:15.749Z,13.47
2023-03-04T08:13:42.622Z,13.60
2023-03-04T08:16:12.636Z,10.93
2023-03-04T08:18:40.537Z,10.63
2023-03-04T08:21:10.341Z,12.13
2023-03-04T08:23:37.170Z,12.07
2023-03-04T08:26:09.646Z,12.73
2023-03-04T08:28:36.522Z,11.70
2023-03-04T08:31:03.752Z,13.40
2023-03-04T08:33:31.381Z,12.67
2023-03-04T08:35:58.103Z,13.13
2023-03-04T08:38:24.775Z,13.47
2023-03-04T08:40:57.698Z,12.83
2023-03-04T08:43:25.863Z,14.50
2023-03-04T08:45:54.331Z,13.27
2023-03-04T08:48:21.850Z,14.00
2023-03-04T08:50:49.302Z,13.60
2023-03-04T08:53:16.681Z,15.63
2023-03-04T08:55:43.529Z,16.30
2023-03-04T08:58:10.922Z,17.03
2023-03-04T09:00:42.957Z,16.67
2023-03-04T09:03:12.279Z,19.23
2023-03-04T09:05:39.175Z,18.50
2023-03-04T09:08:06.214Z,19.60
2023-03-04T09:10:32.900Z,20.23
2023-03-04T09:12:59.544Z,16.53
2023-03-04T09:15:26.164Z,19.50
2023-03-04T09:17:53.027Z,18.40
2023-03-04T09:20:21.112Z,19.43
2023-03-04T09:22:47.678Z,19.20
2023-03-04T09:25:15.490Z,21.27
2023-03-04T09:27:42.134Z,19.87
2023-03-04T09:30:10.223Z,21.13
2023-03-04T09:32:36.974Z,19.87
2023-03-04T09:35:04.009Z,16.90
2023-03-04T09:37:30.662Z,21.50
2023-03-04T09:39:57.274Z,20.13
2023-03-04T09:42:51.963Z,19.70
2023-03-04T09:45:24.940Z,18.77
2023-03-04T09:47:54.252Z,19.70
2023-03-04T09:50:21.985Z,18.60
2023-03-04T09:53:12.875Z,18.73
2023-03-04T09:55:42.259Z,17.80
2023-03-04T09:58:36.935Z,15.97
2023-03-04T10:01:41.676Z,16.03
2023-03-04T10:04:41.428Z,26.60
2023-03-04T10:07:20.425Z,17.50
2023-03-04T10:10:04.965Z,15.80
2023-03-04T10:12:36.684Z,15.87
2023-03-04T10:15:26.956Z,14.17
2023-03-04T10:18:02.734Z,15.20
2023-03-04T10:20:44.157Z,15.20
2023-03-04T10:23:18.185Z,11.00
2023-03-04T10:25:47.067Z,15.23
2023-03-04T10:28:20.205Z,15.13
2023-03-04T10:31:05.002Z,15.33
2023-03-04T10:33:37.231Z,15.00
2023-03-04T10:36:06.933Z,14.10
2023-03-04T10:38:40.174Z,14.90
2023-03-04T10:41:20.428Z,15.47
2023-03-04T10:44:00.484Z,14.00
2023-03-04T10:46:27.278Z,14.27
2023-03-04T10:48:55.054Z,13.30
2023-03-04T10:51:23.263Z,13.97
2023-03-04T10:54:10.182Z,14.17
2023-03-04T10:56:46.366Z,10.67
2023-03-04T10:59:33.920Z,13.77
2023-03-04T11:02:13.379Z,11.83
2023-03-04T11:04:40.215Z,13.47
2023-03-04T11:07:11.028Z,13.50
2023-03-04T11:09:40.162Z,12.90
2023-03-04T11:12:15.377Z,13.43
2023-03-04T11:14:49.128Z,12.33
2023-03-04T11:17:45.541Z,12.23
2023-03-04T11:20:38.026Z,12.00
2023-03-04T11:23:11.319Z,10.53
2023-03-04T11:25:44.028Z,12.10
2023-03-04T11:28:26.712Z,12.70
2023-03-04T11:31:10.147Z,11.77
2023-03-04T11:33:45.539Z,12.07
2023-03-04T11:36:12.137Z,11.53
2023-03-04T11:38:46.892Z,11.77
2023-03-04T11:41:20.535Z,12.40
2023-03-04T11:43:47.922Z,11.93
2023-03-04T11:46:50.845Z,10.27
2023-03-04T11:49:58.927Z,12.20
2023-03-04T11:52:40.016Z,10.87
2023-03-04T11:55:09.464Z,12.67
2023-03-04T11:57:47.819Z,12.30
2023-03-04T12:00:36.026Z,12.40
2023-03-04T12:03:44.383Z,12.23
2023-03-04T12:06:22.824Z,13.23
2023-03-04T12:09:17.295Z,12.30
2023-03-04T12:11:50.182Z,11.77
2023-03-04T12:14:25.538Z,14.33
2023-03-04T12:17:20.359Z,12.53
2023-03-04T12:20:08.744Z,14.60
2023-03-04T12:22:51.444Z,11.33
2023-03-04T12:25:33.764Z,12.77
2023-03-04T12:28:22.976Z,12.30
2023-03-04T12:31:07.786Z,11.10
2023-03-04T12:33:51.375Z,12.50
2023-03-04T12:36:56.604Z,12.33
2023-03-04T12:39:37.981Z,11.27
2023-03-04T12:42:17.192Z,9.97
2023-03-04T12:45:07.273Z,9.63
2023-03-04T12:48:15.053Z,9.53
2023-03-04T12:51:04.921Z,8.57
2023-03-04T12:54:23.954Z,8.33
2023-03-04T12:57:00.910Z,7.43
2023-03-04T12:59:34.303Z,7.70
2023-03-04T13:02:10.069Z,6.47
2023-03-04T13:05:14.149Z,6.30
2023-03-04T13:08:19.906Z,5.73
2023-03-04T13:10:46.566Z,5.40
2023-03-04T13:13:42.473Z,6.03
2023-03-04T13:16:11.964Z,6.07
2023-03-04T13:18:39.557Z,5.87
2023-03-04T13:21:12.252Z,6.03
2023-03-04T13:23:39.658Z,5.67
2023-03-04T13:26:10.241Z,5.17
2023-03-04T13:28:37.417Z,5.30
2023-03-04T13:31:09.754Z,5.50
2023-03-04T13:33:36.350Z,5.50
2023-03-04T13:36:25.608Z,5.40
2023-03-04T13:39:17.006Z,5.50
2023-03-04T13:41:49.922Z,5.07
2023-03-04T13:44:51.768Z,5.03
2023-03-04T13:47:21.422Z,5.30
2023-03-04T13:49:48.416Z,4.90
2023-03-04T13:52:44.356Z,5.37
2023-03-04T13:55:33.274Z,5.30
2023-03-04T13:58:00.616Z,4.60
2023-03-04T14:00:28.776Z,5.13
2023-03-04T14:02:55.586Z,4.83
2023-03-04T14:05:22.222Z,5.30
2023-03-04T14:07:48.923Z,5.23
2023-03-04T14:10:24.802Z,4.47
2023-03-04T14:12:57.647Z,4.93
2023-03-04T14:15:29.364Z,5.20
2023-03-04T14:18:05.299Z,5.00
2023-03-04T14:20:37.504Z,4.57
2023-03-04T14:23:23.563Z,4.77
2023-03-04T14:25:50.367Z,4.50
2023-03-04T14:28:20.803Z,4.80
2023-03-04T14:31:01.917Z,4.43
2023-03-04T14:33:33.598Z,3.60
2023-03-04T14:36:04.697Z,4.30
2023-03-04T14:38:38.600Z,4.87
2023-03-04T14:41:19.347Z,5.03
2023-03-04T14:44:08.138Z,5.10
2023-03-04T14:46:41.157Z,5.00
2023-03-04T14:49:17.204Z,5.70
2023-03-04T14:51:53.543Z,4.83
2023-03-04T14:54:34.228Z,5.33
2023-03-04T14:57:27.535Z,5.60
2023-03-04T14:59:55.603Z,5.30
2023-03-04T15:02:38.937Z,5.87
2023-03-04T15:05:25.450Z,5.70
2023-03-04T15:07:59.536Z,5.27
2023-03-04T15:10:30.158Z,6.10
2023-03-04T15:13:03.355Z,5.30
2023-03-04T15:15:39.807Z,5.60
2023-03-04T15:18:28.439Z,5.10
2023-03-04T15:21:00.725Z,5.50
2023-03-04T15:23:30.274Z,5.53
2023-03-04T15:26:02.096Z,5.60
2023-03-04T15:28:37.119Z,6.00
2023-03-04T15:31:14.797Z,5.37
2023-03-04T15:33:41.474Z,5.20
2023-03-04T15:36:14.139Z,5.30
2023-03-04T15:38:43.675Z,5.07
2023-03-04T15:41:12.348Z,5.90
2023-03-04T15:43:39.380Z,5.37
2023-03-04T15:46:06.665Z,4.87
2023-03-04T15:48:33.417Z,5.60
2023-03-04T15:51:02.317Z,5.53
2023-03-04T15:53:36.588Z,5.47
2023-03-04T15:56:08.137Z,5.87
2023-03-04T15:58:35.432Z,5.03
2023-03-04T16:01:02.649Z,5.33
2023-03-04T16:03:29.439Z,4.93
2023-03-04T16:05:57.176Z,5.03
2023-03-04T16:08:27.386Z,5.00
2023-03-04T16:10:54.820Z,4.90
2023-03-04T16:13:23.883Z,4.97
2023-03-04T16:15:50.883Z,4.50
2023-03-04T16:18:18.095Z,4.67
2023-03-04T16:20:47.681Z,4.83
2023-03-04T16:23:18.762Z,4.67
2023-03-04T16:25:47.137Z,4.57
2023-03-04T16:28:14.070Z,4.87
2023-03-04T16:30:41.690Z,4.63
2023-03-04T16:33:08.970Z,5.00
2023-03-04T16:35:37.732Z,4.93
2023-03-04T16:38:07.288Z,5.30
2023-03-04T16:40:33.953Z,4.57
2023-03-04T16:43:00.537Z,5.00
2023-03-04T16:45:30.262Z,5.00
2023-03-04T16:47:57.216Z,4.97
2023-03-04T16:50:27.380Z,4.93
2023-03-04T16:52:55.710Z,4.57
2023-03-04T16:55:28.205Z,4.90
2023-03-04T16:57:56.155Z,5.47
2023-03-04T17:00:24.059Z,4.63
2023-03-04T17:03:08.451Z,13.70
2023-03-04T17:05:35.089Z,8.23
2023-03-04T17:08:01.694Z,5.20
2023-03-04T17:10:28.364Z,5.10
2023-03-04T17:12:54.997Z,4.87
2023-03-04T17:15:21.682Z,5.00
2023-03-04T17:17:48.442Z,6.07
2023-03-04T17:20:17.234Z,5.17
2023-03-04T17:22:44.478Z,5.60
2023-03-04T17:25:12.457Z,6.30
2023-03-04T17:27:39.358Z,5.50
2023-03-04T17:30:08.017Z,4.97
2023-03-04T17:32:35.677Z,5.47
2023-03-04T17:35:03.333Z,7.00
2023-03-04T17:37:29.978Z,6.70
2023-03-04T17:39:56.555Z,6.37
2023-03-04T17:42:23.144Z,7.00
2023-03-04T17:44:49.823Z,7.10
2023-03-04T17:47:17.207Z,7.10
2023-03-04T17:49:43.830Z,6.87
2023-03-04T17:52:11.186Z,9.90
2023-03-04T17:54:38.054Z,5.90
2023-03-04T17:57:04.709Z,5.30
2023-03-04T17:59:31.488Z,5.83
2023-03-04T18:01:58.197Z,5.20
2023-03-04T18:04:24.878Z,5.17
2023-03-04T18:06:51.457Z,4.97
2023-03-04T18:09:18.066Z,4.90
2023-03-04T18:11:44.906Z,5.47
2023-03-04T18:14:12.760Z,5.53
2023-03-04T18:16:39.879Z,5.13
2023-03-04T18:19:06.481Z,5.30
2023-03-04T18:21:33.190Z,5.03
2023-03-04T18:24:00.034Z,5.57
2023-03-04T18:26:27.724Z,7.93
2023-03-04T18:28:55.422Z,6.67
2023-03-04T18:31:24.743Z,6.30
2023-03-04T18:33:51.722Z,8.97
2023-03-04T18:36:18.397Z,17.40
2023-03-04T18:38:45.048Z,8.37
2023-03-04T18:41:13.670Z,9.53
2023-03-04T18:43:40.765Z,6.20
2023-03-04T18:46:16.523Z,8.80
2023-03-04T18:48:49.657Z,11.00
2023-03-04T18:51:16.578Z,16.23
2023-03-04T18:53:43.148Z,8.90
2023-03-04T18:56:14.243Z,27.50
2023-03-04T18:58:44.247Z,17.43
2023-03-04T19:01:13.911Z,15.30
2023-03-04T19:03:41.791Z,6.43
2023-03-04T19:06:09.103Z,6.27
2023-03-04T19:08:35.891Z,4.57
2023-03-04T19:11:02.528Z,4.57
2023-03-04T19:13:30.705Z,5.50
2023-03-04T19:15:57.340Z,4.53
2023-03-04T19:18:24.782Z,4.23
2023-03-04T19:20:51.456Z,5.40
2023-03-04T19:23:18.144Z,11.30
2023-03-04T19:25:45.031Z,5.33
2023-03-04T19:28:12.129Z,4.70
2023-03-04T19:30:40.125Z,4.30
2023-03-04T19:33:07.173Z,4.97
2023-03-04T19:35:34.181Z,4.83
2023-03-04T19:38:01.070Z,5.77
2023-03-04T19:40:28.410Z,5.37
2023-03-04T19:42:56.680Z,5.90
2023-03-04T19:45:24.854Z,5.47
2023-03-04T19:47:51.951Z,5.50
2023-03-04T19:50:19.242Z,5.60
2023-03-04T19:52:45.964Z,5.37
2023-03-04T19:55:15.075Z,5.20
2023-03-04T19:57:44.824Z,5.73
2023-03-04T20:00:12.679Z,6.03
2023-03-04T20:02:39.991Z,6.17
2023-03-04T20:05:07.221Z,5.83
2023-03-04T20:07:33.833Z,6.70
2023-03-04T20:10:00.446Z,6.27
2023-03-04T20:12:27.313Z,7.07
2023-03-04T20:14:54.010Z,8.03
2023-03-04T20:17:20.750Z,7.53
2023-03-04T20:19:47.482Z,7.93
2023-03-04T20:22:14.089Z,8.03
2023-03-04T20:24:40.689Z,8.13
2023-03-04T20:27:07.296Z,7.87
2023-03-04T20:29:33.904Z,7.63
2023-03-04T20:32:01.431Z,8.40
2023-03-04T20:34:28.096Z,9.03
2023-03-04T20:36:54.692Z,9.00
2023-03-04T20:39:29.286Z,10.17
2023-03-04T20:41:59.528Z,10.33
2023-03-04T20:44:27.283Z,12.37
2023-03-04T20:46:53.896Z,15.27
2023-03-04T20:49:25.548Z,15.33
2023-03-04T20:52:03.346Z,17.40
2023-03-04T20:54:30.748Z,13.80
2023-03-04T20:56:57.567Z,12.07
2023-03-04T20:59:24.420Z,16.77
2023-03-04T21:01:52.400Z,14.77
2023-03-04T21:04:20.349Z,14.60
2023-03-04T21:06:51.683Z,14.67
2023-03-04T21:09:20.786Z,16.83
2023-03-04T21:11:48.734Z,15.50
2023-03-04T21:14:23.072Z,18.40
2023-03-04T21:16:53.416Z,14.90
2023-03-04T21:19:22.833Z,12.80
2023-03-04T21:21:50.748Z,14.10
2023-03-04T21:24:20.725Z,13.30
2023-03-04T21:26:48.053Z,13.03
2023-03-04T21:29:16.569Z,13.87
2023-03-04T21:31:53.422Z,12.83
2023-03-04T21:34:28.241Z,12.67
2023-03-04T21:36:54.837Z,12.70
2023-03-04T21:39:24.133Z,13.30
2023-03-04T21:41:51.353Z,13.97
2023-03-04T21:44:28.015Z,13.27
2023-03-04T21:46:59.937Z,14.70
2023-03-04T21:49:26.772Z,14.40
2023-03-04T21:51:53.506Z,13.53
2023-03-04T21:54:20.316Z,13.60
2023-03-04T21:56:46.947Z,13.57
2023-03-04T21:59:14.634Z,12.90
2023-03-04T22:01:41.743Z,13.50
2023-03-04T22:04:08.948Z,13.03
2023-03-04T22:06:35.799Z,12.67
2023-03-04T22:09:04.699Z,12.93
2023-03-04T22:11:32.220Z,13.00
2023-03-04T22:14:01.940Z,12.77
2023-03-04T22:16:29.117Z,12.33
2023-03-04T22:18:55.863Z,12.93
2023-03-04T22:21:23.489Z,12.27
2023-03-04T22:23:50.325Z,12.77
2023-03-04T22:26:21.055Z,12.17
2023-03-04T22:28:47.801Z,13.30
2023-03-04T22:31:16.158Z,11.67
2023-03-04T22:33:44.411Z,11.53
2023-03-04T22:36:12.721Z,12.37
2023-03-04T22:38:40.445Z,11.33
2023-03-04T22:41:14.483Z,11.50
2023-03-04T22:43:41.705Z,11.90
2023-03-04T22:46:24.639Z,11.33
2023-03-04T22:48:56.311Z,11.03
2023-03-04T22:51:23.411Z,10.53
2023-03-04T22:53:51.937Z,11.03
2023-03-04T22:56:19.773Z,11.47
2023-03-04T22:58:46.972Z,11.10
2023-03-04T23:01:16.734Z,10.70
2023-03-04T23:03:45.661Z,10.23
2023-03-04T23:06:18.197Z,11.00
2023-03-04T23:08:46.972Z,10.83
2023-03-04T23:11:16.881Z,9.83
2023-03-04T23:13:44.631Z,10.53
2023-03-04T23:16:13.773Z,10.33
2023-03-04T23:18:43.695Z,10.60
2023-03-04T23:21:13.939Z,9.77
2023-03-04T23:23:41.652Z,9.70
2023-03-04T23:26:21.174Z,9.30
2023-03-04T23:28:48.453Z,9.57
2023-03-04T23:31:15.870Z,8.30
2023-03-04T23:33:45.076Z,7.50
2023-03-04T23:36:15.225Z,7.47
2023-03-04T23:38:44.199Z,7.80
2023-03-04T23:41:13.950Z,6.77
2023-03-04T23:43:40.976Z,7.40
2023-03-04T23:46:09.366Z,7.07
2023-03-04T23:48:36.770Z,6.80
2023-03-04T23:51:03.941Z,7.20
2023-03-04T23:53:34.441Z,6.77
2023-03-04T23:56:01.093Z,7.17
2023-03-04T23:58:28.429Z,7.33
